Burbank, OH (44214)

2:55 PM EDT on March 23, 2017 (GMT -0400)
MD5241 | | Change Station

Elev 951 ft 41.04 °N, 82.01 °W | Updated 28 minutes ago

Clear
Clear
43.0 °F
Feels Like 39 °F
N
7.0
Wind Variable Wind from East

Today
High -- | Low -- °F
--% Chance of Precip.
Yesterday
High -- | Low -- °F
Precip. -- in
Pressure 30.49 in
Visibility 10.0 miles
Clouds Clear
Windchill 39 °F
Dew Point 15 °F
Humidity 32%
Rainfall 0.00 in
Snow Depth Not available.
7:25 AM 7:43 PM
Waning Crescent, 21% visible
METAR KBJJ 231756Z AUTO 13013G19KT 10SM CLR 05/M09 A3045 RMK AO2 SLP325 T00501089 10056 21072 58029
Pressure 30.49 in
Visibility 10.0 miles
Clouds Clear
Windchill 39 °F
Dew Point 15 °F
Humidity 32%
Rainfall 0.00 in
Snow Depth Not available.
7:25 AM 7:43 PM
Waning Crescent, 21% visible
METAR KBJJ 231756Z AUTO 13013G19KT 10SM CLR 05/M09 A3045 RMK AO2 SLP325 T00501089 10056 21072 58029

Get Severe Weather Alerts

Thanks for signing up!

Be on the lookout for a verification email in your inbox.

You'll start receiving the daily forecast at 8 AM.

×

10-Day Weather Forecast

Almanac

Astronomy

Mar. 23, 2017 Rise Set
Actual Time
Civil Twilight
Nautical Twilight
Astronomical Twilight
Moon
Length of Visible Light
Length of Day
Tomorrow will be .
, % of the Moon is Illuminated

Today's Extremes

State Highs State Lows

Community

WunderPhotos

Upload Photos

1,962,540 photos uploaded!

WunderBlog® & News

Nearby

Air Quality

  Air Quality AQ Index Pollutant
Not available.

Snow Depth

Station Depth Elevation

Earthquake Activity

City Distance Mag. Time & Date
Minimum magnitude displayed is 2.5.

Earthquake Activity

City Distance Mag. Time & Date
Minimum magnitude displayed is 2.5.

Coastal Water Temperatures

Place Temperature

Stations

Nearby Weather Stations

Station Location Temp. Windchill Dew Point Humidity Wind Precip. Elev Updated Type
                   

Watches & Warnings

There are currently no watches in effect.